Time;durP1;ratioP1;P1;durP2;ratioP2;P2;SDS_P1;SDS_P2;PMS_P1;PMS_P2;Temp;Humidity;BMP_temperature;BMP_pressure;BME280_temperature;BME280_humidity;BME280_pressure;Samples;Min_cycle;Max_cycle;Signal;HPM_P1;HPM_P2
2023/06/07 00:02:18;;;;;;;79.05;57.45;;;18.60;76.00;;;;;;4956065;28;89172;-72
2023/06/07 00:04:45;;;;;;;77.43;55.97;;;18.60;76.00;;;;;;4934445;28;90086;-72
2023/06/07 00:07:11;;;;;;;77.45;56.30;;;18.60;77.10;;;;;;4952975;28;89951;-72
2023/06/07 00:09:37;;;;;;;78.55;56.42;;;18.60;76.20;;;;;;4956745;28;89557;-72
2023/06/07 00:12:04;;;;;;;79.55;56.13;;;18.60;76.80;;;;;;4953342;28;89471;-71
2023/06/07 00:14:30;;;;;;;76.80;54.75;;;18.60;76.80;;;;;;4957974;28;90245;-72
2023/06/07 00:16:56;;;;;;;75.00;55.33;;;18.60;77.00;;;;;;4959207;28;90404;-71
2023/06/07 00:19:25;;;;;;;77.53;55.90;;;18.50;77.10;;;;;;4941448;28;91014;-71
2023/06/07 00:21:51;;;;;;;74.15;54.97;;;18.50;76.40;;;;;;4959627;28;89044;-72
2023/06/07 00:24:17;;;;;;;78.40;56.05;;;18.50;77.30;;;;;;4949131;28;88807;-72
2023/06/07 00:26:43;;;;;;;78.40;56.95;;;18.40;76.60;;;;;;4935581;28;93636;-72
2023/06/07 00:29:10;;;;;;;78.63;55.88;;;18.40;76.90;;;;;;4943136;28;89576;-72
2023/06/07 00:31:35;;;;;;;77.32;55.55;;;18.50;76.80;;;;;;4948915;28;93278;-71
2023/06/07 00:34:02;;;;;;;75.65;55.20;;;18.40;76.80;;;;;;4934698;28;92180;-72
2023/06/07 00:36:28;;;;;;;77.07;55.70;;;18.40;77.80;;;;;;4938264;28;91380;-72
2023/06/07 00:38:54;;;;;;;76.60;56.42;;;18.40;77.90;;;;;;4934261;28;91497;-72
2023/06/07 00:41:20;;;;;;;76.72;55.42;;;18.40;77.50;;;;;;4957239;28;89342;-71
2023/06/07 00:43:47;;;;;;;75.72;55.50;;;18.40;77.50;;;;;;4961925;28;89232;-72
2023/06/07 00:46:25;;;;;;;74.35;55.20;;;18.40;77.00;;;;;;4941644;28;89662;-72
2023/06/07 00:48:51;;;;;;;76.70;56.33;;;18.30;76.90;;;;;;4956981;28;88755;-72
2023/06/07 00:51:18;;;;;;;76.65;56.75;;;18.30;76.90;;;;;;4961781;28;89198;-72
2023/06/07 00:53:46;;;;;;;77.72;56.80;;;18.30;77.60;;;;;;4954929;28;89570;-72
2023/06/07 00:56:12;;;;;;;79.50;57.25;;;18.20;77.30;;;;;;4948978;28;90113;-72
2023/06/07 00:58:38;;;;;;;80.05;56.85;;;18.20;77.60;;;;;;4947417;28;89987;-70
2023/06/07 01:01:05;;;;;;;79.03;57.15;;;18.20;77.60;;;;;;4951560;28;89398;-72
2023/06/07 01:03:34;;;;;;;79.22;56.67;;;18.20;77.00;;;;;;4948787;28;89621;-72
2023/06/07 01:06:03;;;;;;;74.82;54.03;;;18.20;78.30;;;;;;4933671;28;91006;-72
2023/06/07 01:08:30;;;;;;;75.80;55.85;;;18.20;77.70;;;;;;4932024;28;89240;-71
2023/06/07 01:10:58;;;;;;;78.32;56.88;;;18.20;77.10;;;;;;4944857;28;91264;-72
2023/06/07 01:13:24;;;;;;;77.10;56.42;;;18.20;77.60;;;;;;4944964;28;90256;-71
2023/06/07 01:15:51;;;;;;;77.70;56.65;;;18.10;78.20;;;;;;4953396;28;91953;-72
2023/06/07 01:18:18;;;;;;;73.78;53.72;;;18.10;77.10;;;;;;4959641;28;90168;-73
2023/06/07 01:20:50;;;;;;;78.63;55.83;;;18.10;79.00;;;;;;4956699;28;90078;-71
2023/06/07 01:23:27;;;;;;;73.93;54.78;;;18.10;77.30;;;;;;4954384;28;90426;-73
2023/06/07 01:25:55;;;;;;;77.20;55.97;;;18.10;78.50;;;;;;4953116;28;90145;-71
2023/06/07 01:28:21;;;;;;;77.80;56.45;;;18.10;79.80;;;;;;4952836;28;90281;-71
2023/06/07 01:30:48;;;;;;;80.03;58.50;;;18.10;78.10;;;;;;4949861;28;90042;-73
2023/06/07 01:33:16;;;;;;;75.97;55.35;;;18.00;78.40;;;;;;4955741;28;89965;-72
2023/06/07 01:35:44;;;;;;;75.80;54.72;;;18.00;78.70;;;;;;4957214;28;90743;-71
2023/06/07 01:38:10;;;;;;;78.30;57.60;;;18.00;79.40;;;;;;4957327;28;88674;-71
2023/06/07 01:40:38;;;;;;;76.25;55.85;;;18.00;77.70;;;;;;4957227;28;89025;-71
2023/06/07 01:43:05;;;;;;;79.22;55.63;;;18.00;79.50;;;;;;4958342;28;88805;-71
2023/06/07 01:45:31;;;;;;;76.10;56.13;;;18.00;78.80;;;;;;4944535;28;92790;-72
2023/06/07 01:47:57;;;;;;;77.57;56.38;;;18.00;78.40;;;;;;4929435;28;91952;-72
2023/06/07 01:50:23;;;;;;;76.93;57.13;;;17.90;78.70;;;;;;4947158;28;94299;-74
2023/06/07 01:52:48;;;;;;;78.85;57.40;;;17.90;77.70;;;;;;4947373;28;89197;-74
2023/06/07 01:55:15;;;;;;;79.05;56.78;;;17.90;78.40;;;;;;4948215;28;90212;-75
2023/06/07 01:57:46;;;;;;;75.75;56.50;;;17.90;78.40;;;;;;4945697;28;89574;-74
2023/06/07 02:00:15;;;;;;;;;;;17.90;79.60;;;;;;4938284;28;91253;-74
2023/06/07 02:02:53;;;;;;;78.57;56.78;;;17.90;78.40;;;;;;4952662;28;88774;-74
2023/06/07 02:05:31;;;;;;;78.28;57.50;;;17.80;78.30;;;;;;4940514;28;91821;-74
2023/06/07 02:07:59;;;;;;;75.00;54.95;;;17.80;78.70;;;;;;4944640;28;89397;-74
2023/06/07 02:10:27;;;;;;;76.18;55.90;;;17.80;79.60;;;;;;4943716;28;91157;-74
2023/06/07 02:12:54;;;;;;;74.10;54.58;;;17.70;80.00;;;;;;4940859;28;89871;-74
2023/06/07 02:15:20;;;;;;;76.00;55.10;;;17.80;79.80;;;;;;4941569;28;89451;-74
2023/06/07 02:17:57;;;;;;;75.07;55.95;;;17.70;79.40;;;;;;4934963;28;90406;-73
2023/06/07 02:20:26;;;;;;;76.95;55.45;;;17.70;79.00;;;;;;4952710;28;88906;-75
2023/06/07 02:22:52;;;;;;;75.60;55.05;;;17.70;78.50;;;;;;4945453;28;89698;-74
2023/06/07 02:25:18;;;;;;;74.80;54.67;;;17.70;80.00;;;;;;4946739;28;90247;-73
2023/06/07 02:27:43;;;;;;;72.78;54.38;;;17.70;80.00;;;;;;4945351;28;89968;-74
2023/06/07 02:30:09;;;;;;;75.70;54.92;;;17.70;79.90;;;;;;4944772;28;88943;-74
2023/06/07 02:32:35;;;;;;;73.70;54.20;;;17.70;79.80;;;;;;4959284;28;90999;-74
2023/06/07 02:35:01;;;;;;;79.72;57.50;;;17.70;80.60;;;;;;4942434;28;91478;-75
2023/06/07 02:37:28;;;;;;;76.45;56.05;;;17.70;78.50;;;;;;4951171;28;89994;-73
2023/06/07 02:39:54;;;;;;;73.82;54.88;;;17.70;80.10;;;;;;4949377;28;89309;-75
2023/06/07 02:42:19;;;;;;;74.35;54.70;;;17.70;80.40;;;;;;4949804;28;90678;-74
2023/06/07 02:44:45;;;;;;;78.57;56.25;;;17.70;79.70;;;;;;4935242;28;89881;-74
2023/06/07 02:47:10;;;;;;;77.50;55.92;;;17.60;79.50;;;;;;4947884;28;89521;-74
2023/06/07 02:49:36;;;;;;;77.93;57.10;;;17.60;79.50;;;;;;4939988;28;89533;-74
2023/06/07 02:52:02;;;;;;;75.63;56.53;;;17.50;78.70;;;;;;4955454;28;88780;-74
2023/06/07 02:54:27;;;;;;;76.50;56.47;;;17.50;80.00;;;;;;4949403;28;89317;-74
2023/06/07 02:56:53;;;;;;;78.07;56.03;;;17.50;79.40;;;;;;4951964;28;89826;-73
2023/06/07 02:59:19;;;;;;;74.55;54.80;;;17.50;80.10;;;;;;4940395;28;90570;-75
2023/06/07 03:01:46;;;;;;;78.45;55.78;;;17.50;80.40;;;;;;4954658;28;90505;-74
2023/06/07 03:04:11;;;;;;;76.47;55.70;;;17.50;80.00;;;;;;4955521;28;90891;-74
2023/06/07 03:06:40;;;;;;;77.85;56.75;;;17.50;79.20;;;;;;4956265;28;89131;-73
2023/06/07 03:09:06;;;;;;;74.93;55.75;;;17.40;79.70;;;;;;4938782;28;90195;-74
2023/06/07 03:11:32;;;;;;;74.82;56.40;;;17.40;79.70;;;;;;4956906;28;90002;-74
2023/06/07 03:13:57;;;;;;;74.68;55.17;;;17.40;80.70;;;;;;4951648;28;89854;-74
2023/06/07 03:16:23;;;;;;;72.78;53.00;;;17.40;80.40;;;;;;4961997;28;89326;-73
2023/06/07 03:18:49;;;;;;;76.55;55.53;;;17.50;80.60;;;;;;4943231;28;89801;-74
2023/06/07 03:21:15;;;;;;;74.18;55.08;;;17.50;80.60;;;;;;4940037;28;89135;-76
2023/06/07 03:23:41;;;;;;;75.45;55.58;;;17.50;80.90;;;;;;4954565;28;91340;-74
2023/06/07 03:26:08;;;;;;;74.15;55.92;;;17.40;80.20;;;;;;4956610;28;89953;-73
2023/06/07 03:28:34;;;;;;;76.45;56.88;;;17.40;80.60;;;;;;4958083;28;89545;-73
2023/06/07 03:31:00;;;;;;;75.50;55.80;;;17.30;80.30;;;;;;4953981;28;91004;-73
2023/06/07 03:33:25;;;;;;;74.47;55.97;;;17.30;80.90;;;;;;4937262;28;91671;-74
2023/06/07 03:35:51;;;;;;;73.68;55.50;;;17.30;80.90;;;;;;4960071;28;89543;-74
2023/06/07 03:38:17;;;;;;;76.30;55.75;;;17.30;80.30;;;;;;4941128;28;89614;-74
2023/06/07 03:40:42;;;;;;;74.70;55.30;;;17.30;79.90;;;;;;4954017;28;89963;-74
2023/06/07 03:43:08;;;;;;;73.60;55.17;;;17.30;80.00;;;;;;4956013;28;89742;-74
2023/06/07 03:45:34;;;;;;;75.32;56.10;;;17.30;80.50;;;;;;4960055;28;89434;-74
2023/06/07 03:47:59;;;;;;;75.32;56.00;;;17.30;79.00;;;;;;4960119;28;90428;-73
2023/06/07 03:50:25;;;;;;;75.40;56.08;;;17.20;79.60;;;;;;4960272;28;89001;-74
2023/06/07 03:52:50;;;;;;;73.30;54.40;;;17.20;80.80;;;;;;4955081;28;89356;-74
2023/06/07 03:55:19;;;;;;;74.78;55.22;;;17.20;80.70;;;;;;4957464;28;89364;-76
2023/06/07 03:57:48;;;;;;;75.53;55.97;;;17.20;81.00;;;;;;4960025;28;90611;-74
2023/06/07 04:00:17;;;;;;;75.32;55.85;;;17.20;79.70;;;;;;4958695;28;89045;-75
2023/06/07 04:02:43;;;;;;;75.13;55.42;;;17.20;80.40;;;;;;4960337;28;89330;-73
2023/06/07 04:05:09;;;;;;;72.70;54.58;;;17.20;80.90;;;;;;4957629;28;88776;-75
2023/06/07 04:07:35;;;;;;;72.32;53.95;;;17.20;80.70;;;;;;4961099;28;89220;-73
2023/06/07 04:10:00;;;;;;;74.63;55.50;;;17.20;80.40;;;;;;4947180;28;94561;-74
2023/06/07 04:12:26;;;;;;;73.63;55.22;;;17.20;79.60;;;;;;4955883;28;91707;-73
2023/06/07 04:14:51;;;;;;;73.70;54.83;;;17.20;79.80;;;;;;4957802;28;89597;-74
2023/06/07 04:17:17;;;;;;;73.85;54.85;;;17.20;81.20;;;;;;4958811;28;89499;-73
2023/06/07 04:19:43;;;;;;;73.72;54.55;;;17.20;80.60;;;;;;4959236;28;89383;-74
2023/06/07 04:22:08;;;;;;;74.32;55.75;;;17.20;81.70;;;;;;4956103;28;90182;-74
2023/06/07 04:24:34;;;;;;;73.53;55.38;;;17.20;79.80;;;;;;4940368;28;92315;-74
2023/06/07 04:27:01;;;;;;;72.00;54.22;;;17.20;80.40;;;;;;4960938;28;89345;-75
2023/06/07 04:29:26;;;;;;;74.07;54.53;;;17.20;79.80;;;;;;4958676;28;89589;-74
2023/06/07 04:31:56;;;;;;;72.78;54.53;;;17.20;81.50;;;;;;4954950;28;89631;-75
2023/06/07 04:34:23;;;;;;;73.85;55.25;;;17.20;80.70;;;;;;4957692;28;89343;-74
2023/06/07 04:36:50;;;;;;;76.65;55.70;;;17.20;80.40;;;;;;4959447;28;89932;-74
2023/06/07 04:39:18;;;;;;;73.28;54.95;;;17.20;78.80;;;;;;4956032;28;89697;-75
2023/06/07 04:41:45;;;;;;;73.80;54.60;;;17.20;80.30;;;;;;4954075;28;90934;-74
2023/06/07 04:44:11;;;;;;;75.75;54.10;;;17.20;79.30;;;;;;4935142;28;91953;-75
2023/06/07 04:46:39;;;;;;;73.72;54.97;;;17.20;79.80;;;;;;4959569;28;89099;-74
2023/06/07 04:49:05;;;;;;;70.28;52.88;;;17.20;79.80;;;;;;4956181;28;90023;-74
2023/06/07 04:51:31;;;;;;;74.40;55.63;;;17.20;81.80;;;;;;4937390;28;92328;-74
2023/06/07 04:54:01;;;;;;;75.15;55.25;;;17.20;80.10;;;;;;4958581;28;89731;-74
2023/06/07 04:56:27;;;;;;;74.50;55.15;;;17.20;79.60;;;;;;4937735;28;90063;-75
2023/06/07 04:58:53;;;;;;;74.05;55.50;;;17.30;79.20;;;;;;4954237;28;89006;-74
2023/06/07 05:01:19;;;;;;;72.10;53.92;;;17.20;79.50;;;;;;4948209;28;90346;-74
2023/06/07 05:03:45;;;;;;;71.22;52.90;;;17.20;80.30;;;;;;4933536;28;90047;-77
2023/06/07 05:06:11;;;;;;;75.03;54.47;;;17.30;80.60;;;;;;4959703;28;89141;-75
2023/06/07 05:08:37;;;;;;;74.20;54.80;;;17.30;79.60;;;;;;4955406;28;90744;-74
2023/06/07 05:11:02;;;;;;;73.63;54.92;;;17.30;79.10;;;;;;4957041;28;89397;-74
2023/06/07 05:13:28;;;;;;;73.40;54.38;;;17.30;79.70;;;;;;4951634;28;89277;-76
2023/06/07 05:15:54;;;;;;;72.43;53.80;;;17.40;80.00;;;;;;4949916;28;89641;-76
2023/06/07 05:18:20;;;;;;;71.40;54.13;;;17.30;79.10;;;;;;4954308;28;88563;-75
2023/06/07 05:20:49;;;;;;;72.40;54.17;;;17.40;78.40;;;;;;4957734;28;90085;-77
2023/06/07 05:23:18;;;;;;;75.72;55.65;;;17.40;79.30;;;;;;4952764;28;90337;-77
2023/06/07 05:25:44;;;;;;;73.97;55.35;;;17.40;78.30;;;;;;4951555;28;91231;-77
2023/06/07 05:28:10;;;;;;;71.28;53.70;;;17.40;78.40;;;;;;4932024;28;91015;-74
2023/06/07 05:30:36;;;;;;;73.35;54.53;;;17.40;78.00;;;;;;4952562;28;90638;-76
2023/06/07 05:33:02;;;;;;;74.20;53.85;;;17.50;77.80;;;;;;4955053;28;90385;-71
2023/06/07 05:35:27;;;;;;;71.90;53.42;;;17.50;77.90;;;;;;4955067;28;89587;-70
2023/06/07 05:37:53;;;;;;;74.63;54.17;;;17.50;77.80;;;;;;4955565;28;90034;-72
2023/06/07 05:40:19;;;;;;;72.75;54.80;;;17.50;78.70;;;;;;4951057;28;91744;-72
2023/06/07 05:42:45;;;;;;;72.25;53.78;;;17.50;78.80;;;;;;4940431;28;91794;-71
2023/06/07 05:45:11;;;;;;;71.18;53.95;;;17.50;78.70;;;;;;4953958;28;89592;-72
2023/06/07 05:47:37;;;;;;;74.22;54.72;;;17.40;77.70;;;;;;4948411;28;90277;-72
2023/06/07 05:50:04;;;;;;;75.95;55.13;;;17.50;77.60;;;;;;4958397;28;90673;-73
2023/06/07 05:52:30;;;;;;;75.25;54.05;;;17.50;77.40;;;;;;4956455;28;90700;-72
2023/06/07 05:54:57;;;;;;;73.45;54.45;;;17.50;78.80;;;;;;4952740;28;89679;-72
2023/06/07 05:57:23;;;;;;;78.35;54.50;;;17.50;76.80;;;;;;4959056;28;90230;-71
2023/06/07 05:59:49;;;;;;;76.07;54.22;;;17.60;78.90;;;;;;4957068;28;90391;-72
2023/06/07 06:02:16;;;;;;;78.75;54.70;;;17.60;75.50;;;;;;4939385;28;90982;-72
2023/06/07 06:04:43;;;;;;;73.65;53.35;;;17.50;75.80;;;;;;4954213;28;89052;-71
2023/06/07 06:07:09;;;;;;;79.57;54.60;;;17.60;79.20;;;;;;4950473;28;89501;-72
2023/06/07 06:09:34;;;;;;;75.53;54.13;;;17.60;78.70;;;;;;4947838;28;91298;-72
2023/06/07 06:12:00;;;;;;;81.57;59.42;;;17.70;78.70;;;;;;4965364;28;90438;-72
2023/06/07 06:14:27;;;;;;;84.95;59.97;;;17.90;75.80;;;;;;4944238;28;90597;-72
2023/06/07 06:16:53;;;;;;;82.30;59.38;;;17.60;74.90;;;;;;4958120;28;89523;-72
2023/06/07 06:19:19;;;;;;;83.35;59.97;;;17.60;74.90;;;;;;4957496;28;90021;-70
2023/06/07 06:21:44;;;;;;;81.28;60.30;;;17.40;75.20;;;;;;4957202;28;89363;-71
2023/06/07 06:24:10;;;;;;;84.03;60.08;;;17.50;75.60;;;;;;4952696;28;89994;-72
2023/06/07 06:26:36;;;;;;;84.53;59.88;;;17.60;75.80;;;;;;4969237;28;89846;-73
2023/06/07 06:29:01;;;;;;;85.10;59.50;;;17.80;74.00;;;;;;4959347;28;90847;-75
2023/06/07 06:31:27;;;;;;;84.90;58.97;;;17.90;74.70;;;;;;4965293;28;88652;-70
2023/06/07 06:33:53;;;;;;;83.38;59.47;;;18.00;74.60;;;;;;4957361;28;89329;-73
2023/06/07 06:36:20;;;;;;;82.72;58.88;;;17.90;74.60;;;;;;4954928;28;89650;-72
2023/06/07 06:38:46;;;;;;;82.38;58.33;;;18.00;74.20;;;;;;4967449;28;90597;-72
2023/06/07 06:41:12;;;;;;;82.82;59.10;;;18.00;74.00;;;;;;4960383;28;90334;-70
2023/06/07 06:43:38;;;;;;;79.03;57.90;;;17.90;73.90;;;;;;4968912;28;88929;-71
2023/06/07 06:46:03;;;;;;;85.13;59.00;;;18.00;74.00;;;;;;4967721;28;90467;-72
2023/06/07 06:48:29;;;;;;;85.78;59.38;;;18.20;73.30;;;;;;4966143;28;90796;-70
2023/06/07 06:50:55;;;;;;;80.78;59.42;;;18.00;73.20;;;;;;4963681;28;89663;-71
2023/06/07 06:53:21;;;;;;;84.50;58.88;;;18.00;73.70;;;;;;4960554;28;89947;-72
2023/06/07 06:55:47;;;;;;;80.18;58.63;;;18.10;74.10;;;;;;4962426;28;89233;-73
2023/06/07 06:58:13;;;;;;;80.55;58.13;;;18.20;73.50;;;;;;4952613;28;90750;-71
2023/06/07 07:00:39;;;;;;;83.10;58.58;;;18.40;73.30;;;;;;4968788;28;90257;-69
2023/06/07 07:03:05;;;;;;;85.45;59.05;;;18.30;72.20;;;;;;4966257;28;89632;-70
2023/06/07 07:05:30;;;;;;;83.60;59.33;;;18.30;73.10;;;;;;4963203;28;88757;-71
2023/06/07 07:07:56;;;;;;;89.18;60.22;;;18.50;71.60;;;;;;4956078;28;89898;-72
2023/06/07 07:10:22;;;;;;;82.75;59.17;;;18.40;71.80;;;;;;4942312;28;91572;-71
2023/06/07 07:12:48;;;;;;;81.32;58.65;;;18.30;73.10;;;;;;4936788;28;89516;-71
2023/06/07 07:15:13;;;;;;;83.55;59.28;;;18.40;72.50;;;;;;4951930;28;90473;-72
2023/06/07 07:17:47;;;;;;;83.10;59.22;;;18.40;72.30;;;;;;4953118;28;89191;-71
2023/06/07 07:20:13;;;;;;;82.20;58.88;;;18.50;73.30;;;;;;4957464;28;88677;-71
2023/06/07 07:22:38;;;;;;;82.95;58.78;;;18.60;72.90;;;;;;4950596;28;89662;-71
2023/06/07 07:25:05;;;;;;;82.70;60.45;;;18.80;73.30;;;;;;4953621;28;88888;-70
2023/06/07 07:27:31;;;;;;;82.82;59.25;;;18.70;71.10;;;;;;4956253;28;90460;-71
2023/06/07 07:29:57;;;;;;;81.35;58.90;;;18.70;71.70;;;;;;4955514;28;90019;-71
2023/06/07 07:32:23;;;;;;;85.30;59.30;;;18.80;71.80;;;;;;4957627;28;89519;-71
2023/06/07 07:34:48;;;;;;;85.43;59.15;;;18.80;71.80;;;;;;4952339;28;89220;-71
2023/06/07 07:37:14;;;;;;;82.32;59.22;;;18.70;71.20;;;;;;4953999;28;90446;-70
2023/06/07 07:39:40;;;;;;;88.60;59.72;;;18.70;72.00;;;;;;4949076;28;89113;-69
2023/06/07 07:42:06;;;;;;;85.50;59.83;;;18.90;71.90;;;;;;4956441;28;90099;-70
2023/06/07 07:44:35;;;;;;;81.90;58.80;;;19.00;71.60;;;;;;4953705;28;88939;-73
2023/06/07 07:47:01;;;;;;;84.60;59.33;;;19.00;71.30;;;;;;4954295;28;90072;-71
2023/06/07 07:49:26;;;;;;;82.47;59.83;;;19.10;69.90;;;;;;4953893;28;94054;-70
2023/06/07 07:51:52;;;;;;;82.65;59.05;;;19.00;70.70;;;;;;4956325;28;90477;-72
2023/06/07 07:54:18;;;;;;;84.22;58.85;;;18.90;71.80;;;;;;4957803;28;90525;-70
2023/06/07 07:56:44;;;;;;;84.10;59.28;;;19.10;71.30;;;;;;4953025;28;90007;-70
2023/06/07 07:59:10;;;;;;;86.75;59.15;;;19.10;71.60;;;;;;4955328;28;90080;-72
2023/06/07 08:01:36;;;;;;;84.30;59.33;;;19.20;69.80;;;;;;4949753;28;89218;-71
2023/06/07 08:04:01;;;;;;;86.43;59.50;;;19.00;70.80;;;;;;4945811;28;89261;-69
2023/06/07 08:06:27;;;;;;;85.90;60.30;;;19.10;70.70;;;;;;4955182;28;89868;-70
2023/06/07 08:08:53;;;;;;;88.15;60.38;;;19.40;70.00;;;;;;4955419;28;89904;-71
2023/06/07 08:11:21;;;;;;;85.18;59.40;;;19.40;69.50;;;;;;4955411;28;89976;-71
2023/06/07 08:13:46;;;;;;;83.43;59.70;;;19.40;69.20;;;;;;4948839;28;89116;-71
2023/06/07 08:16:13;;;;;;;85.90;60.42;;;19.40;69.00;;;;;;4935163;28;90766;-71
2023/06/07 08:18:39;;;;;;;85.82;59.55;;;19.40;68.80;;;;;;4953577;28;89713;-70
2023/06/07 08:21:05;;;;;;;83.97;60.20;;;19.50;68.30;;;;;;4928483;28;89745;-67
2023/06/07 08:23:30;;;;;;;88.45;59.25;;;19.40;68.30;;;;;;4941711;28;94272;-71
2023/06/07 08:25:58;;;;;;;85.70;60.28;;;19.50;68.50;;;;;;4951202;28;89418;-70
2023/06/07 08:28:24;;;;;;;87.53;60.88;;;19.70;67.90;;;;;;4949888;28;95325;-74
2023/06/07 08:30:50;;;;;;;85.65;59.25;;;19.80;67.50;;;;;;4936658;28;90612;-71
2023/06/07 08:33:15;;;;;;;81.80;59.30;;;19.80;68.20;;;;;;4956902;28;93651;-74
2023/06/07 08:35:41;;;;;;;88.38;60.67;;;19.80;67.30;;;;;;4953852;28;90432;-74
2023/06/07 08:38:08;;;;;;;84.63;60.20;;;19.90;67.10;;;;;;4953559;28;89613;-72
2023/06/07 08:40:35;;;;;;;88.10;61.47;;;19.90;67.30;;;;;;4964784;28;90321;-75
2023/06/07 08:43:01;;;;;;;90.18;61.45;;;19.80;66.20;;;;;;4948705;28;89192;-75
2023/06/07 08:45:27;;;;;;;87.13;60.78;;;19.90;66.60;;;;;;4956774;28;89164;-74
2023/06/07 08:47:54;;;;;;;87.20;61.22;;;19.90;66.60;;;;;;4944526;28;89366;-74
2023/06/07 08:50:22;;;;;;;87.05;61.20;;;20.00;66.40;;;;;;4964453;28;90308;-75
2023/06/07 08:52:54;;;;;;;87.55;61.30;;;20.00;66.50;;;;;;4938844;28;89756;-75
2023/06/07 08:55:21;;;;;;;90.32;60.30;;;20.00;65.50;;;;;;4954403;28;89927;-75
2023/06/07 08:57:51;;;;;;;88.45;61.22;;;20.00;66.00;;;;;;4955365;28;88625;-73
2023/06/07 09:00:23;;;;;;;84.07;59.35;;;20.00;66.20;;;;;;4968717;28;89613;-72
2023/06/07 09:02:53;;;;;;;88.80;61.42;;;20.00;66.60;;;;;;4942262;28;88925;-70
2023/06/07 09:05:20;;;;;;;87.80;60.95;;;20.00;65.90;;;;;;4968196;28;90721;-70
2023/06/07 09:07:46;;;;;;;86.18;60.83;;;20.10;65.30;;;;;;4969507;28;90010;-72
2023/06/07 09:10:13;;;;;;;89.78;61.45;;;20.10;65.70;;;;;;4968189;28;89645;-72
2023/06/07 09:12:39;;;;;;;91.20;60.97;;;20.10;66.10;;;;;;4951833;28;89533;-70
2023/06/07 09:15:07;;;;;;;85.30;60.67;;;20.30;66.40;;;;;;4957268;28;89320;-72
2023/06/07 09:17:59;;;;;;;86.10;60.15;;;20.50;66.20;;;;;;4961904;28;89935;-71
2023/06/07 09:20:27;;;;;;;89.68;62.35;;;20.50;66.40;;;;;;4944289;28;88971;-72
2023/06/07 09:23:11;;;;;;;84.93;60.47;;;20.50;64.50;;;;;;4966082;28;88650;-72
2023/06/07 09:25:37;;;;;;;89.32;61.17;;;20.50;66.30;;;;;;4974607;28;90618;-71
2023/06/07 09:28:08;;;;;;;87.07;60.90;;;20.30;65.00;;;;;;4960176;28;90289;-72
2023/06/07 09:30:33;;;;;;;82.43;59.57;;;20.30;65.10;;;;;;4954926;28;89612;-72
2023/06/07 09:32:59;;;;;;;88.40;59.60;;;20.40;66.50;;;;;;4966668;28;88748;-72
2023/06/07 09:35:25;;;;;;;89.25;61.08;;;20.30;65.40;;;;;;4949469;28;93044;-73
2023/06/07 09:37:54;;;;;;;87.40;60.92;;;20.30;65.30;;;;;;4960364;28;89843;-71
2023/06/07 09:40:21;;;;;;;82.93;59.25;;;20.30;64.80;;;;;;4943572;28;89407;-70
2023/06/07 09:42:59;;;;;;;83.07;59.03;;;20.30;65.10;;;;;;4962709;28;88896;-70
2023/06/07 09:45:26;;;;;;;87.55;61.00;;;20.50;66.00;;;;;;4962967;28;94565;-70
2023/06/07 09:48:02;;;;;;;85.22;59.85;;;20.50;64.80;;;;;;4963987;28;89075;-71
2023/06/07 09:50:29;;;;;;;84.38;59.60;;;20.50;64.20;;;;;;4950445;28;89311;-70
2023/06/07 09:53:01;;;;;;;82.97;58.65;;;20.50;65.90;;;;;;4964426;28;89751;-71
2023/06/07 09:55:28;;;;;;;86.50;59.13;;;20.50;65.40;;;;;;4953985;28;94967;-71
2023/06/07 09:57:55;;;;;;;91.63;60.95;;;20.60;64.90;;;;;;4955457;28;90448;-74
2023/06/07 10:00:21;;;;;;;90.10;59.75;;;20.70;65.30;;;;;;4952294;28;89604;-70
2023/06/07 10:02:49;;;;;;;88.05;59.72;;;20.70;65.00;;;;;;4952351;28;91042;-72
2023/06/07 10:05:16;;;;;;;93.07;59.13;;;20.80;66.10;;;;;;4941965;28;89717;-71
2023/06/07 10:07:46;;;;;;;83.95;58.95;;;20.90;65.90;;;;;;4953989;28;89955;-70
2023/06/07 10:10:14;;;;;;;88.97;59.73;;;20.80;64.60;;;;;;4953050;28;90161;-70
2023/06/07 10:12:42;;;;;;;93.55;59.53;;;20.70;64.40;;;;;;4951334;28;89745;-71
2023/06/07 10:15:10;;;;;;;82.60;59.55;;;20.60;64.50;;;;;;4937221;28;91108;-71
2023/06/07 10:17:50;;;;;;;85.47;58.65;;;20.60;64.20;;;;;;4952974;28;90769;-69
2023/06/07 10:20:30;;;;;;;85.80;58.58;;;20.60;65.60;;;;;;4943480;28;90428;-70
2023/06/07 10:23:02;;;;;;;85.78;58.72;;;20.80;64.00;;;;;;4931239;28;91927;-70
2023/06/07 10:25:31;;;;;;;90.72;59.72;;;20.90;64.00;;;;;;4949708;28;90389;-71
2023/06/07 10:28:13;;;;;;;83.28;58.50;;;21.00;63.70;;;;;;4947074;28;94039;-72
2023/06/07 10:30:43;;;;;;;82.35;59.03;;;20.90;64.10;;;;;;4953019;28;94223;-70
2023/06/07 10:33:10;;;;;;;85.50;60.00;;;21.00;63.90;;;;;;4952747;28;89008;-73
2023/06/07 10:35:39;;;;;;;83.20;59.72;;;21.10;62.10;;;;;;4941911;28;90657;-72
2023/06/07 10:38:05;;;;;;;86.00;59.85;;;21.20;61.70;;;;;;4959290;28;89541;-70
2023/06/07 10:40:31;;;;;;;83.65;58.97;;;21.30;63.50;;;;;;4963105;28;89244;-72
2023/06/07 10:42:57;;;;;;;83.90;59.47;;;21.30;63.70;;;;;;4940772;28;90694;-73
2023/06/07 10:45:24;;;;;;;84.95;59.17;;;21.30;61.80;;;;;;4963325;28;92000;-74
2023/06/07 10:47:50;;;;;;;85.90;60.50;;;21.30;62.30;;;;;;4954313;28;89810;-72
2023/06/07 10:50:27;;;;;;;84.82;57.30;;;21.40;60.30;;;;;;4932375;28;89371;-74
2023/06/07 10:52:57;;;;;;;82.75;58.03;;;21.50;62.40;;;;;;4947563;28;94854;-72
2023/06/07 10:55:26;;;;;;;86.32;59.50;;;21.60;61.50;;;;;;4949305;28;90222;-70
2023/06/07 10:57:53;;;;;;;84.88;59.60;;;21.60;59.70;;;;;;4923912;28;90018;-72
2023/06/07 11:00:33;;;;;;;82.95;58.00;;;21.70;59.20;;;;;;4950759;28;90070;-72
2023/06/07 11:03:04;;;;;;;84.55;57.75;;;21.70;61.10;;;;;;4955276;28;94158;-73
2023/06/07 11:05:52;;;;;;;82.80;58.72;;;21.80;59.60;;;;;;4951681;28;89503;-73
2023/06/07 11:08:26;;;;;;;85.60;59.45;;;21.80;59.60;;;;;;4939082;28;90439;-71
2023/06/07 11:10:58;;;;;;;83.82;57.90;;;21.80;60.00;;;;;;4957201;28;95230;-72
2023/06/07 11:13:25;;;;;;;83.18;57.80;;;21.90;60.50;;;;;;4950641;28;89155;-72
2023/06/07 11:15:50;;;;;;;82.60;56.40;;;21.90;59.30;;;;;;4949417;28;90416;-72
2023/06/07 11:18:16;;;;;;;81.82;57.28;;;22.00;61.00;;;;;;4957069;28;90591;-73
2023/06/07 11:20:45;;;;;;;78.75;56.33;;;22.00;60.00;;;;;;4948621;28;89653;-71
2023/06/07 11:23:25;;;;;;;81.57;56.72;;;22.10;59.60;;;;;;4952916;28;89643;-72
2023/06/07 11:25:54;;;;;;;83.15;57.35;;;22.10;60.30;;;;;;4949559;28;89488;-70
2023/06/07 11:28:27;;;;;;;78.30;55.28;;;22.10;59.60;;;;;;4947284;28;92231;-70
2023/06/07 11:30:53;;;;;;;82.55;57.90;;;22.20;59.90;;;;;;4954159;28;89334;-73
2023/06/07 11:33:22;;;;;;;83.82;57.78;;;22.20;58.70;;;;;;4950014;28;89185;-73
2023/06/07 11:35:52;;;;;;;81.30;57.40;;;22.30;58.70;;;;;;4964076;28;90678;-71
2023/06/07 11:38:18;;;;;;;83.53;56.92;;;22.30;57.10;;;;;;4972283;28;90054;-70
2023/06/07 11:40:45;;;;;;;81.65;57.30;;;22.30;58.50;;;;;;4979819;28;90361;-70
2023/06/07 11:43:12;;;;;;;84.43;58.53;;;22.40;58.30;;;;;;4964062;28;92398;-73
2023/06/07 11:45:42;;;;;;;88.57;58.90;;;22.40;58.30;;;;;;4974330;28;91600;-71
2023/06/07 11:48:08;;;;;;;85.90;58.63;;;22.40;58.30;;;;;;4975471;28;89193;-71
2023/06/07 11:50:35;;;;;;;85.05;59.38;;;22.50;59.20;;;;;;4952036;28;89996;-72
2023/06/07 11:53:01;;;;;;;84.05;58.95;;;22.50;56.50;;;;;;4930102;28;88814;-72
2023/06/07 11:55:27;;;;;;;86.35;58.95;;;22.60;56.80;;;;;;4953427;28;90154;-72
2023/06/07 11:57:53;;;;;;;83.85;57.35;;;22.70;57.60;;;;;;4946292;28;90398;-72
2023/06/07 12:00:23;;;;;;;86.15;58.20;;;22.60;58.40;;;;;;4950543;28;90547;-72
2023/06/07 12:02:52;;;;;;;85.25;57.47;;;22.60;58.60;;;;;;4946190;28;92855;-72
2023/06/07 12:05:21;;;;;;;83.35;58.30;;;22.70;58.10;;;;;;4954154;28;90267;-72
2023/06/07 12:08:16;;;;;;;78.70;56.63;;;22.70;57.40;;;;;;4951261;28;89348;-73
2023/06/07 12:10:45;;;;;;;86.78;58.33;;;22.80;58.20;;;;;;4951965;28;94663;-72
2023/06/07 12:13:12;;;;;;;86.47;59.45;;;22.80;57.40;;;;;;4941433;28;89932;-72
2023/06/07 12:15:46;;;;;;;86.53;59.60;;;22.90;56.30;;;;;;4952221;28;89525;-72
2023/06/07 12:18:17;;;;;;;84.28;58.90;;;23.10;55.80;;;;;;4951492;28;89007;-72
2023/06/07 12:20:45;;;;;;;84.18;58.85;;;23.10;56.90;;;;;;4949918;28;89411;-73
2023/06/07 12:23:12;;;;;;;83.60;59.22;;;23.30;55.60;;;;;;4952470;28;89473;-72
2023/06/07 12:25:40;;;;;;;86.47;60.40;;;23.30;55.50;;;;;;4958566;28;91122;-73
2023/06/07 12:28:06;;;;;;;88.65;59.58;;;23.40;55.50;;;;;;4956889;28;90358;-72
2023/06/07 12:30:37;;;;;;;87.70;60.20;;;23.40;55.60;;;;;;4965006;28;88690;-71